Time;durP1;ratioP1;P1;durP2;ratioP2;P2;SDS_P1;SDS_P2;PMS_P1;PMS_P2;Temp;Humidity;BMP_temperature;BMP_pressure;BME280_temperature;BME280_humidity;BME280_pressure;Samples;Min_cycle;Max_cycle;Signal;HPM_P1;HPM_P2
2022/02/19 00:00:08;;;;;;;11.37;2.00;;;;;;;;;;5052769;28;20574;-82
2022/02/19 00:02:35;;;;;;;13.30;2.20;;;;;;;;;;5053562;28;20227;-81
2022/02/19 00:05:03;;;;;;;14.13;2.87;;;;;;;;;;5053531;28;20238;-81
2022/02/19 00:07:31;;;;;;;11.67;1.87;;;;;;;;;;5052249;28;20227;-81
2022/02/19 00:09:59;;;;;;;9.20;2.23;;;;;;;;;;5053703;28;20234;-81
2022/02/19 00:12:26;;;;;;;13.47;2.30;;;;;;;;;;5052949;28;20231;-81
2022/02/19 00:14:53;;;;;;;13.73;2.63;;;;;;;;;;5052923;28;20211;-81
2022/02/19 00:17:21;;;;;;;10.80;2.20;;;;;;;;;;5057399;28;20310;-81
2022/02/19 00:19:48;;;;;;;11.47;2.50;;;;;;;;;;5051802;28;20204;-81
2022/02/19 00:22:15;;;;;;;10.03;2.37;;;;;;;;;;5052810;28;20264;-81
2022/02/19 00:24:44;;;;;;;11.37;2.53;;;;;;;;;;5052830;28;20276;-81
2022/02/19 00:27:11;;;;;;;12.13;2.30;;;;;;;;;;5052563;28;20208;-82
2022/02/19 00:29:38;;;;;;;10.33;2.20;;;;;;;;;;5052563;28;20625;-81
2022/02/19 00:32:06;;;;;;;11.73;2.30;;;;;;;;;;5053230;28;20227;-81
2022/02/19 00:34:33;;;;;;;12.07;2.03;;;;;;;;;;5052478;28;20295;-81
2022/02/19 00:37:00;;;;;;;8.60;1.80;;;;;;;;;;5052428;28;20229;-81
2022/02/19 00:39:28;;;;;;;13.07;2.27;;;;;;;;;;5052255;28;20195;-81
2022/02/19 00:41:56;;;;;;;11.67;2.13;;;;;;;;;;5052308;28;20621;-82
2022/02/19 00:44:24;;;;;;;7.60;1.93;;;;;;;;;;5049528;28;20231;-82
2022/02/19 00:46:51;;;;;;;10.77;2.40;;;;;;;;;;5052976;28;20250;-82
2022/02/19 00:49:18;;;;;;;10.93;2.00;;;;;;;;;;5053011;28;20282;-82
2022/02/19 00:51:46;;;;;;;11.17;1.93;;;;;;;;;;5056980;28;20218;-82
2022/02/19 00:54:13;;;;;;;10.23;1.90;;;;;;;;;;5052497;28;20261;-81
2022/02/19 00:56:40;;;;;;;10.27;2.10;;;;;;;;;;5052129;28;20203;-82
2022/02/19 00:59:09;;;;;;;10.17;1.80;;;;;;;;;;5052089;28;20682;-81
2022/02/19 01:01:38;;;;;;;9.17;2.40;;;;;;;;;;5052097;28;20207;-81
2022/02/19 01:04:05;;;;;;;9.37;1.70;;;;;;;;;;5051367;28;20246;-81
2022/02/19 01:06:32;;;;;;;10.87;2.50;;;;;;;;;;5051144;28;20227;-82
2022/02/19 01:09:00;;;;;;;11.17;2.40;;;;;;;;;;5052227;28;20244;-82
2022/02/19 01:11:27;;;;;;;13.20;2.30;;;;;;;;;;5052834;28;20277;-82
2022/02/19 01:13:54;;;;;;;14.53;2.47;;;;;;;;;;5051910;28;20203;-82
2022/02/19 01:16:23;;;;;;;11.07;2.53;;;;;;;;;;5051640;28;20322;-81
2022/02/19 01:18:50;;;;;;;6.00;2.03;;;;;;;;;;5052113;28;20306;-81
2022/02/19 01:21:18;;;;;;;8.33;2.27;;;;;;;;;;5050860;28;20293;-81
2022/02/19 01:23:45;;;;;;;7.23;2.07;;;;;;;;;;5052837;28;20256;-81
2022/02/19 01:26:13;;;;;;;13.47;2.60;;;;;;;;;;5057000;28;20234;-81
2022/02/19 01:28:40;;;;;;;11.37;2.50;;;;;;;;;;5053362;28;20261;-81
2022/02/19 01:31:07;;;;;;;9.90;2.90;;;;;;;;;;5051559;28;20285;-81
2022/02/19 01:33:36;;;;;;;10.73;3.67;;;;;;;;;;5051873;28;20234;-81
2022/02/19 01:36:03;;;;;;;12.63;3.10;;;;;;;;;;5051874;28;20202;-81
2022/02/19 01:38:30;;;;;;;13.90;2.67;;;;;;;;;;5051623;28;20265;-81
2022/02/19 01:40:58;;;;;;;12.03;2.60;;;;;;;;;;5050973;28;20289;-81
2022/02/19 01:43:25;;;;;;;13.07;4.20;;;;;;;;;;5045440;28;20261;-81
2022/02/19 01:45:52;;;;;;;7.63;3.07;;;;;;;;;;5046963;28;20329;-81
2022/02/19 01:48:20;;;;;;;13.07;2.83;;;;;;;;;;5051214;28;20224;-81
2022/02/19 01:50:49;;;;;;;10.03;2.63;;;;;;;;;;5050331;28;20212;-81
2022/02/19 01:53:17;;;;;;;13.40;3.00;;;;;;;;;;5050771;28;20222;-82
2022/02/19 01:55:44;;;;;;;12.70;2.60;;;;;;;;;;5050294;28;20261;-82
2022/02/19 01:58:12;;;;;;;11.07;2.13;;;;;;;;;;5051180;28;20327;-81
2022/02/19 02:00:39;;;;;;;15.97;2.70;;;;;;;;;;5050693;28;20264;-81
2022/02/19 02:03:06;;;;;;;12.53;2.77;;;;;;;;;;5051136;28;20238;-82
2022/02/19 02:05:34;;;;;;;12.20;3.33;;;;;;;;;;5050300;28;20270;-81
2022/02/19 02:08:06;;;;;;;11.13;2.90;;;;;;;;;;5050273;28;21137;-81
2022/02/19 02:10:34;;;;;;;12.33;2.83;;;;;;;;;;5050672;28;20206;-81
2022/02/19 02:13:04;;;;;;;12.47;3.30;;;;;;;;;;5050065;28;20197;-81
2022/02/19 02:15:32;;;;;;;13.60;3.43;;;;;;;;;;5051021;28;20225;-81
2022/02/19 02:18:00;;;;;;;12.50;3.13;;;;;;;;;;5049800;28;20232;-81
2022/02/19 02:20:28;;;;;;;10.63;2.80;;;;;;;;;;5051472;28;20201;-82
2022/02/19 02:22:56;;;;;;;17.27;3.33;;;;;;;;;;5050999;28;20622;-81
2022/02/19 02:25:25;;;;;;;11.83;2.90;;;;;;;;;;5051461;28;20228;-81
2022/02/19 02:27:53;;;;;;;12.67;3.33;;;;;;;;;;5050851;28;20742;-81
2022/02/19 02:30:20;;;;;;;14.33;3.33;;;;;;;;;;5050455;28;20237;-81
2022/02/19 02:32:47;;;;;;;11.10;2.40;;;;;;;;;;5050541;28;20602;-81
2022/02/19 02:35:15;;;;;;;15.37;3.00;;;;;;;;;;5036740;28;20676;-81
2022/02/19 02:37:42;;;;;;;18.47;2.90;;;;;;;;;;5049996;28;20598;-81
2022/02/19 02:40:12;;;;;;;11.67;2.40;;;;;;;;;;5050892;28;20203;-81
2022/02/19 02:42:39;;;;;;;8.47;2.50;;;;;;;;;;5050663;28;20305;-80
2022/02/19 02:45:07;;;;;;;12.70;2.77;;;;;;;;;;5050762;28;20729;-81
2022/02/19 02:47:36;;;;;;;14.27;2.70;;;;;;;;;;5050161;28;20226;-81
2022/02/19 02:50:03;;;;;;;11.13;2.40;;;;;;;;;;5051043;28;20204;-81
2022/02/19 02:52:30;;;;;;;13.30;2.53;;;;;;;;;;5050041;28;20743;-81
2022/02/19 02:54:58;;;;;;;10.67;2.20;;;;;;;;;;5051211;28;20296;-81
2022/02/19 02:57:26;;;;;;;14.20;2.53;;;;;;;;;;5049897;28;20639;-81
2022/02/19 02:59:54;;;;;;;12.73;2.47;;;;;;;;;;5050770;28;20228;-82
2022/02/19 03:02:21;;;;;;;14.73;2.57;;;;;;;;;;5049977;28;20302;-81
2022/02/19 03:04:48;;;;;;;12.30;2.63;;;;;;;;;;5050279;28;20282;-81
2022/02/19 03:07:15;;;;;;;10.50;2.90;;;;;;;;;;5048760;28;20244;-81
2022/02/19 03:09:42;;;;;;;11.70;2.43;;;;;;;;;;5050262;28;20238;-82
2022/02/19 03:12:10;;;;;;;7.87;2.10;;;;;;;;;;5050909;28;20229;-81
2022/02/19 03:14:39;;;;;;;14.10;2.20;;;;;;;;;;5050145;28;20201;-81
2022/02/19 03:17:06;;;;;;;12.23;2.30;;;;;;;;;;5050540;28;20201;-81
2022/02/19 03:19:33;;;;;;;8.17;2.27;;;;;;;;;;5050478;28;20229;-81
2022/02/19 03:22:01;;;;;;;12.33;2.40;;;;;;;;;;5049274;28;20298;-81
2022/02/19 03:24:28;;;;;;;13.73;2.30;;;;;;;;;;5051181;28;20299;-81
2022/02/19 03:26:55;;;;;;;11.00;2.50;;;;;;;;;;5050196;28;20204;-81
2022/02/19 03:29:22;;;;;;;10.07;2.00;;;;;;;;;;5031654;28;20206;-81
2022/02/19 03:31:51;;;;;;;13.57;2.40;;;;;;;;;;5052875;28;20222;-81
2022/02/19 03:34:18;;;;;;;12.20;2.30;;;;;;;;;;5053556;28;20235;-81
2022/02/19 03:36:45;;;;;;;7.10;1.90;;;;;;;;;;5054344;28;20611;-80
2022/02/19 03:39:12;;;;;;;12.90;2.40;;;;;;;;;;5053669;28;20257;-81
2022/02/19 03:41:40;;;;;;;10.17;2.47;;;;;;;;;;5053827;28;20221;-81
2022/02/19 03:44:07;;;;;;;13.63;2.63;;;;;;;;;;5052929;28;20299;-81
2022/02/19 03:46:36;;;;;;;10.10;2.50;;;;;;;;;;5053862;28;20233;-81
2022/02/19 03:49:04;;;;;;;12.90;3.37;;;;;;;;;;5054533;28;20192;-81
2022/02/19 03:51:32;;;;;;;12.60;3.20;;;;;;;;;;5053403;28;20238;-80
2022/02/19 03:53:59;;;;;;;11.90;3.87;;;;;;;;;;5054214;28;20293;-81
2022/02/19 03:56:26;;;;;;;16.00;4.57;;;;;;;;;;5053783;28;20285;-81
2022/02/19 03:58:53;;;;;;;10.47;4.20;;;;;;;;;;5053399;28;20652;-81
2022/02/19 04:01:21;;;;;;;11.00;3.50;;;;;;;;;;5053632;28;20228;-81
2022/02/19 04:03:48;;;;;;;12.63;3.60;;;;;;;;;;5053707;28;20233;-81
2022/02/19 04:06:16;;;;;;;12.93;3.37;;;;;;;;;;5052056;28;20625;-81
2022/02/19 04:08:44;;;;;;;16.73;4.10;;;;;;;;;;5052712;28;20202;-81
2022/02/19 04:11:12;;;;;;;13.70;3.43;;;;;;;;;;5052407;28;20684;-81
2022/02/19 04:13:40;;;;;;;10.00;2.87;;;;;;;;;;5053544;28;20208;-81
2022/02/19 04:16:07;;;;;;;10.37;2.80;;;;;;;;;;5052943;28;20205;-81
2022/02/19 04:18:34;;;;;;;10.23;2.87;;;;;;;;;;5053364;28;20247;-81
2022/02/19 04:21:02;;;;;;;11.40;2.50;;;;;;;;;;5052777;28;20652;-81
2022/02/19 04:23:30;;;;;;;10.17;2.67;;;;;;;;;;5053021;28;20290;-81
2022/02/19 04:25:57;;;;;;;10.50;2.23;;;;;;;;;;5053809;28;20744;-81
2022/02/19 04:28:26;;;;;;;12.13;2.27;;;;;;;;;;5053131;28;20236;-81
2022/02/19 04:30:53;;;;;;;10.63;2.40;;;;;;;;;;5052664;28;20200;-82
2022/02/19 04:33:21;;;;;;;13.47;2.30;;;;;;;;;;5053010;28;20250;-81
2022/02/19 04:35:49;;;;;;;11.50;2.30;;;;;;;;;;5051298;28;20734;-81
2022/02/19 04:38:16;;;;;;;8.87;2.40;;;;;;;;;;5052760;28;20658;-81
2022/02/19 04:40:44;;;;;;;9.93;2.43;;;;;;;;;;5051065;28;20259;-81
2022/02/19 04:43:12;;;;;;;13.60;2.33;;;;;;;;;;5051949;28;20310;-81
2022/02/19 04:45:39;;;;;;;12.57;2.73;;;;;;;;;;5052868;28;20795;-81
2022/02/19 04:48:06;;;;;;;12.63;2.37;;;;;;;;;;5051591;28;20284;-81
2022/02/19 04:50:34;;;;;;;11.33;2.77;;;;;;;;;;5052782;28;20235;-81
2022/02/19 04:53:01;;;;;;;10.13;2.97;;;;;;;;;;5052798;28;20623;-81
2022/02/19 04:55:28;;;;;;;14.90;3.17;;;;;;;;;;5052665;28;20204;-81
2022/02/19 04:57:57;;;;;;;10.40;2.80;;;;;;;;;;5052284;28;20715;-81
2022/02/19 05:00:24;;;;;;;9.80;2.90;;;;;;;;;;5051891;28;20260;-81
2022/02/19 05:02:51;;;;;;;10.83;2.60;;;;;;;;;;5050977;28;20284;-81
2022/02/19 05:05:18;;;;;;;10.73;2.60;;;;;;;;;;5050930;28;20233;-81
2022/02/19 05:07:46;;;;;;;12.90;1.97;;;;;;;;;;5052344;28;20703;-81
2022/02/19 05:10:13;;;;;;;9.90;2.30;;;;;;;;;;5051154;28;20223;-81
2022/02/19 05:12:41;;;;;;;10.10;2.23;;;;;;;;;;5043965;28;20288;-81
2022/02/19 05:15:12;;;;;;;11.90;2.27;;;;;;;;;;5051461;28;20210;-81
2022/02/19 05:17:47;;;;;;;11.33;2.07;;;;;;;;;;5052030;28;20226;-81
2022/02/19 05:20:14;;;;;;;8.57;2.23;;;;;;;;;;5051240;28;20254;-81
2022/02/19 05:22:41;;;;;;;13.07;2.70;;;;;;;;;;5052085;28;20231;-81
2022/02/19 05:25:09;;;;;;;14.40;2.80;;;;;;;;;;5052299;28;20227;-81
2022/02/19 05:27:36;;;;;;;11.90;2.47;;;;;;;;;;5052458;28;20199;-81
2022/02/19 05:30:04;;;;;;;14.57;2.90;;;;;;;;;;5051896;28;20223;-81
2022/02/19 05:32:33;;;;;;;10.83;2.50;;;;;;;;;;5050630;28;20201;-81
2022/02/19 05:35:00;;;;;;;9.07;2.70;;;;;;;;;;5051202;28;20283;-80
2022/02/19 05:37:30;;;;;;;10.20;2.57;;;;;;;;;;5051613;28;20290;-80
2022/02/19 05:39:57;;;;;;;8.30;2.33;;;;;;;;;;5051339;28;20215;-81
2022/02/19 05:42:24;;;;;;;11.03;2.80;;;;;;;;;;5050924;28;20252;-81
2022/02/19 05:44:51;;;;;;;13.87;2.87;;;;;;;;;;5051610;28;20318;-80
2022/02/19 05:47:19;;;;;;;12.77;2.80;;;;;;;;;;5050921;28;20265;-81
2022/02/19 05:49:48;;;;;;;14.83;3.00;;;;;;;;;;5050983;28;20216;-80
2022/02/19 05:52:15;;;;;;;13.43;3.20;;;;;;;;;;5051565;28;20224;-80
2022/02/19 05:54:43;;;;;;;17.90;3.63;;;;;;;;;;5050860;28;20648;-81
2022/02/19 05:57:10;;;;;;;12.73;3.33;;;;;;;;;;5051521;28;20280;-81
2022/02/19 05:59:37;;;;;;;15.90;4.17;;;;;;;;;;5051386;28;20869;-81
2022/02/19 06:02:05;;;;;;;14.37;3.33;;;;;;;;;;5051063;28;20279;-81
2022/02/19 06:04:32;;;;;;;12.10;3.10;;;;;;;;;;5050652;28;20624;-81
2022/02/19 06:07:00;;;;;;;11.97;3.10;;;;;;;;;;5050982;28;20277;-81
2022/02/19 06:09:28;;;;;;;12.77;3.17;;;;;;;;;;5050218;28;20287;-81
2022/02/19 06:11:55;;;;;;;12.57;2.60;;;;;;;;;;5051289;28;20291;-81
2022/02/19 06:14:22;;;;;;;11.93;2.50;;;;;;;;;;5051554;28;20246;-81
2022/02/19 06:16:50;;;;;;;15.83;3.17;;;;;;;;;;5051213;28;20282;-81
2022/02/19 06:19:17;;;;;;;12.03;2.60;;;;;;;;;;5051712;28;20306;-81
2022/02/19 06:21:44;;;;;;;12.33;2.83;;;;;;;;;;5050288;28;20230;-80
2022/02/19 06:24:13;;;;;;;16.87;2.47;;;;;;;;;;5049934;28;20227;-80
2022/02/19 06:26:40;;;;;;;15.00;2.60;;;;;;;;;;5050117;28;20773;-81
2022/02/19 06:29:07;;;;;;;11.27;2.23;;;;;;;;;;5051180;28;20277;-80
2022/02/19 06:31:35;;;;;;;11.67;2.17;;;;;;;;;;5050715;28;20208;-80
2022/02/19 06:34:02;;;;;;;6.87;2.37;;;;;;;;;;5049912;28;20679;-79
2022/02/19 06:36:29;;;;;;;13.93;2.93;;;;;;;;;;5050866;28;20638;-80
2022/02/19 06:38:57;;;;;;;11.77;3.10;;;;;;;;;;5048920;28;20709;-80
2022/02/19 06:41:25;;;;;;;9.07;2.87;;;;;;;;;;5047842;28;20232;-80
2022/02/19 06:43:53;;;;;;;14.03;3.20;;;;;;;;;;5050678;28;20219;-81
2022/02/19 06:46:20;;;;;;;15.37;3.33;;;;;;;;;;5050002;28;20232;-80
2022/02/19 06:48:47;;;;;;;17.87;4.27;;;;;;;;;;5050701;28;20213;-80
2022/02/19 06:51:14;;;;;;;18.90;4.70;;;;;;;;;;5050510;28;20246;-80
2022/02/19 06:53:42;;;;;;;14.03;4.80;;;;;;;;;;5050753;28;20276;-80
2022/02/19 06:56:09;;;;;;;13.57;4.53;;;;;;;;;;5050074;28;20286;-80
2022/02/19 06:58:38;;;;;;;19.00;3.70;;;;;;;;;;5050144;28;20287;-79
2022/02/19 07:01:05;;;;;;;16.20;4.17;;;;;;;;;;5050911;28;20239;-80
2022/02/19 07:03:33;;;;;;;14.10;4.20;;;;;;;;;;5050937;28;20235;-81
2022/02/19 07:06:00;;;;;;;13.63;4.00;;;;;;;;;;5054180;28;20292;-80
2022/02/19 07:08:27;;;;;;;18.43;3.67;;;;;;;;;;5054046;28;20242;-80
2022/02/19 07:10:54;;;;;;;12.67;4.03;;;;;;;;;;5054842;28;20241;-81
2022/02/19 07:13:21;;;;;;;15.03;4.40;;;;;;;;;;5055207;28;20731;-79
2022/02/19 07:15:50;;;;;;;13.50;4.10;;;;;;;;;;5055263;28;20277;-79
2022/02/19 07:18:17;;;;;;;15.10;4.13;;;;;;;;;;5055689;28;20283;-80
2022/02/19 07:20:47;;;;;;;44.07;17.80;;;;;;;;;;5055438;28;20597;-80
2022/02/19 07:23:14;;;;;;;38.57;20.30;;;;;;;;;;5055859;28;20194;-80
2022/02/19 07:25:41;;;;;;;103.07;47.60;;;;;;;;;;5054971;28;20243;-81
2022/02/19 07:28:08;;;;;;;25.37;10.50;;;;;;;;;;5055039;28;20691;-80
2022/02/19 07:30:38;;;;;;;13.37;4.50;;;;;;;;;;5046280;28;20224;-80
2022/02/19 07:33:07;;;;;;;14.73;4.07;;;;;;;;;;5055266;28;20675;-80
2022/02/19 07:35:34;;;;;;;14.60;3.57;;;;;;;;;;5054928;28;20287;-80
2022/02/19 07:38:02;;;;;;;13.10;3.70;;;;;;;;;;5054227;28;20201;-81
2022/02/19 07:40:30;;;;;;;15.13;3.70;;;;;;;;;;5055115;28;20231;-80
2022/02/19 07:42:57;;;;;;;15.07;3.63;;;;;;;;;;5054883;28;20307;-80
2022/02/19 07:45:24;;;;;;;12.73;4.30;;;;;;;;;;5053635;28;20794;-80
2022/02/19 07:47:52;;;;;;;12.87;3.30;;;;;;;;;;5054019;28;20204;-80
2022/02/19 07:58:34;;;;;;;12.67;3.07;;;;;;;;;;5044351;28;20282;-80
2022/02/19 08:01:03;;;;;;;12.27;3.30;;;;;;;;;;5052885;28;20247;-79
2022/02/19 08:03:31;;;;;;;10.53;3.20;;;;;;;;;;5053590;28;20227;-81
2022/02/19 08:06:00;;;;;;;17.60;6.20;;;;;;;;;;5053008;28;20740;-81
2022/02/19 08:08:27;;;;;;;16.13;4.80;;;;;;;;;;5053876;28;20293;-81
2022/02/19 08:10:55;;;;;;;10.97;3.40;;;;;;;;;;5053138;28;20622;-81
2022/02/19 08:13:23;;;;;;;10.83;3.03;;;;;;;;;;5052343;28;20285;-79
2022/02/19 08:15:50;;;;;;;11.27;2.47;;;;;;;;;;5053308;28;20562;-80
2022/02/19 08:18:18;;;;;;;9.70;2.13;;;;;;;;;;5053701;28;20287;-80
2022/02/19 08:20:46;;;;;;;11.23;2.53;;;;;;;;;;5053970;28;20262;-80
2022/02/19 08:23:16;;;;;;;11.30;2.30;;;;;;;;;;5053530;28;20254;-80
2022/02/19 08:25:43;;;;;;;9.47;2.30;;;;;;;;;;5053438;28;20245;-80
2022/02/19 08:28:11;;;;;;;10.80;3.00;;;;;;;;;;5053569;28;20291;-79
2022/02/19 08:30:47;;;;;;;12.33;3.40;;;;;;;;;;5051649;28;20223;-80
2022/02/19 08:33:14;;;;;;;7.80;2.43;;;;;;;;;;5053415;28;20295;-83
2022/02/19 08:35:42;;;;;;;7.00;2.63;;;;;;;;;;5046851;28;20228;-80
2022/02/19 08:38:11;;;;;;;7.93;2.40;;;;;;;;;;5050029;28;20290;-80
2022/02/19 08:40:40;;;;;;;7.97;2.37;;;;;;;;;;5051339;28;20224;-80
2022/02/19 08:43:07;;;;;;;7.87;1.97;;;;;;;;;;5053506;28;20314;-79
2022/02/19 08:45:34;;;;;;;8.77;2.27;;;;;;;;;;5051371;28;20263;-79
2022/02/19 08:48:05;;;;;;;7.57;2.10;;;;;;;;;;5052663;28;20269;-80
2022/02/19 08:50:35;;;;;;;8.23;2.53;;;;;;;;;;5052152;28;20662;-79
2022/02/19 08:53:03;;;;;;;7.85;2.20;;;;;;;;;;5053211;28;20334;-79
2022/02/19 08:55:31;;;;;;;8.85;2.80;;;;;;;;;;5052462;28;20211;-79
2022/02/19 08:57:59;;;;;;;6.88;2.33;;;;;;;;;;5052407;28;20671;-79
2022/02/19 09:00:27;;;;;;;7.63;2.22;;;;;;;;;;5033827;28;20307;-79
2022/02/19 09:02:54;;;;;;;8.48;2.63;;;;;;;;;;5044313;28;20262;-80
2022/02/19 09:05:22;;;;;;;7.20;1.98;;;;;;;;;;5052369;28;20238;-80
2022/02/19 09:07:49;;;;;;;10.90;2.08;;;;;;;;;;5052029;28;20196;-80
2022/02/19 09:10:17;;;;;;;9.05;2.67;;;;;;;;;;5051984;28;20227;-80
2022/02/19 09:12:47;;;;;;;6.75;2.40;;;;;;;;;;5052214;28;20750;-80
2022/02/19 09:15:16;;;;;;;7.55;2.00;;;;;;;;;;5044058;28;20235;-81
2022/02/19 09:17:44;;;;;;;12.65;2.30;;;;;;;;;;5052930;28;20199;-80
2022/02/19 09:20:12;;;;;;;8.98;1.95;;;;;;;;;;5050075;28;20315;-79
2022/02/19 09:22:39;;;;;;;6.00;1.73;;;;;;;;;;5051866;28;20199;-80
2022/02/19 09:25:07;;;;;;;8.40;2.25;;;;;;;;;;5050878;28;20223;-80
2022/02/19 09:27:34;;;;;;;13.00;2.00;;;;;;;;;;5051412;28;20219;-83
2022/02/19 09:30:02;;;;;;;5.65;2.17;;;;;;;;;;5051112;28;20199;-77
2022/02/19 09:32:31;;;;;;;4.25;1.50;;;;;;;;;;5043942;28;20290;-82
2022/02/19 09:34:58;;;;;;;8.50;2.03;;;;;;;;;;5051725;28;20236;-84
2022/02/19 09:37:28;;;;;;;6.05;1.58;;;;;;;;;;5051297;28;20668;-82
2022/02/19 09:39:55;;;;;;;10.40;2.10;;;;;;;;;;5043192;28;20227;-83
2022/02/19 09:42:23;;;;;;;6.63;1.42;;;;;;;;;;5051295;28;20216;-80
2022/02/19 09:44:50;;;;;;;9.97;1.90;;;;;;;;;;5051412;28;20314;-79
2022/02/19 09:47:23;;;;;;;7.10;1.53;;;;;;;;;;5051674;28;20683;-79
2022/02/19 09:49:51;;;;;;;8.07;2.20;;;;;;;;;;5052146;28;20219;-82
2022/02/19 09:52:18;;;;;;;8.23;2.03;;;;;;;;;;5051397;28;20706;-83
2022/02/19 09:54:46;;;;;;;6.97;1.97;;;;;;;;;;5051151;28;20250;-83
2022/02/19 09:57:13;;;;;;;8.20;2.20;;;;;;;;;;5051078;28;20261;-83
2022/02/19 09:59:40;;;;;;;8.43;2.00;;;;;;;;;;5050796;28;20725;-83
2022/02/19 10:02:08;;;;;;;6.80;2.33;;;;;;;;;;5048500;28;20879;-84
2022/02/19 10:04:36;;;;;;;8.13;1.92;;;;;;;;;;5049692;28;20203;-83
2022/02/19 10:07:14;;;;;;;9.50;1.95;;;;;;;;;;5047333;28;20212;-85
2022/02/19 10:09:41;;;;;;;9.48;2.30;;;;;;;;;;5056822;28;20223;-84
2022/02/19 10:12:10;;;;;;;8.80;1.90;;;;;;;;;;5050497;28;20295;-84
2022/02/19 10:14:39;;;;;;;8.23;1.90;;;;;;;;;;5051753;28;20593;-83
2022/02/19 10:17:11;;;;;;;7.50;2.40;;;;;;;;;;5031457;28;20668;-84
2022/02/19 10:19:48;;;;;;;7.55;2.42;;;;;;;;;;5038123;28;20642;-84
2022/02/19 10:22:17;;;;;;;6.65;2.30;;;;;;;;;;5049104;28;20272;-84
2022/02/19 10:24:47;;;;;;;6.65;2.20;;;;;;;;;;5051394;28;20230;-84
2022/02/19 10:27:14;;;;;;;6.60;1.70;;;;;;;;;;5051395;28;20585;-83
2022/02/19 10:29:48;;;;;;;5.43;1.55;;;;;;;;;;5050624;28;20282;-82
2022/02/19 10:32:16;;;;;;;8.20;1.90;;;;;;;;;;5051788;28;20657;-83
2022/02/19 10:34:58;;;;;;;5.90;1.95;;;;;;;;;;5050115;28;20284;-83
2022/02/19 10:37:28;;;;;;;7.45;1.98;;;;;;;;;;5048263;28;20671;-83
2022/02/19 10:39:57;;;;;;;7.55;1.90;;;;;;;;;;5048776;28;20280;-83
2022/02/19 10:42:32;;;;;;;7.25;1.88;;;;;;;;;;5054222;28;20207;-82
2022/02/19 10:44:59;;;;;;;7.95;2.30;;;;;;;;;;5049900;28;20234;-83
2022/02/19 10:47:28;;;;;;;6.80;1.67;;;;;;;;;;5055147;28;20303;-83
2022/02/19 10:50:06;;;;;;;7.43;2.10;;;;;;;;;;5038005;28;20660;-83
2022/02/19 10:52:35;;;;;;;7.40;2.03;;;;;;;;;;5048083;28;20298;-86
2022/02/19 10:55:04;;;;;;;7.13;2.00;;;;;;;;;;5054959;28;20192;-85
2022/02/19 10:57:31;;;;;;;5.95;1.70;;;;;;;;;;5052182;28;20199;-86
2022/02/19 10:59:59;;;;;;;6.40;1.80;;;;;;;;;;5050984;28;20225;-88
2022/02/19 11:02:27;;;;;;;5.18;1.52;;;;;;;;;;5052267;28;20242;-85
2022/02/19 11:04:54;;;;;;;7.75;1.52;;;;;;;;;;5043501;28;20203;-85
2022/02/19 11:07:21;;;;;;;5.57;1.45;;;;;;;;;;5053217;28;20286;-85
2022/02/19 11:09:50;;;;;;;6.05;1.40;;;;;;;;;;5053991;28;20215;-86
2022/02/19 11:12:18;;;;;;;5.57;1.60;;;;;;;;;;5053878;28;20227;-86
2022/02/19 11:14:45;;;;;;;5.57;1.90;;;;;;;;;;5053915;28;20203;-88
2022/02/19 11:17:14;;;;;;;3.95;1.70;;;;;;;;;;5052947;28;20257;-85
2022/02/19 11:19:42;;;;;;;5.30;1.98;;;;;;;;;;5049860;28;20699;-87
2022/02/19 11:22:11;;;;;;;5.10;1.80;;;;;;;;;;5050258;28;20211;-85
2022/02/19 11:24:40;;;;;;;4.78;1.58;;;;;;;;;;5052200;28;20286;-86
2022/02/19 11:27:10;;;;;;;6.65;1.58;;;;;;;;;;5051900;28;20766;-85
2022/02/19 11:29:38;;;;;;;5.30;1.45;;;;;;;;;;5052826;28;20565;-86
2022/02/19 11:32:08;;;;;;;4.18;1.50;;;;;;;;;;5055249;28;20202;-87
2022/02/19 11:34:35;;;;;;;8.00;1.30;;;;;;;;;;5053404;28;20211;-86
2022/02/19 11:37:13;;;;;;;6.80;1.52;;;;;;;;;;5057842;28;20227;-85
2022/02/19 11:39:55;;;;;;;9.93;1.52;;;;;;;;;;5052974;28;20287;-85
2022/02/19 11:42:36;;;;;;;7.18;1.38;;;;;;;;;;5050312;28;20216;-85
2022/02/19 11:45:17;;;;;;;5.22;1.33;;;;;;;;;;5053022;28;20322;-85
2022/02/19 11:47:45;;;;;;;6.68;1.67;;;;;;;;;;5052473;28;20294;-84
2022/02/19 11:50:19;;;;;;;6.05;1.38;;;;;;;;;;5052910;28;20207;-87
2022/02/19 11:52:47;;;;;;;4.50;1.40;;;;;;;;;;5053990;28;20588;-87
2022/02/19 11:55:30;;;;;;;5.50;1.67;;;;;;;;;;5054361;28;20238;-86
2022/02/19 11:58:06;;;;;;;7.10;1.83;;;;;;;;;;5048899;28;20290;-87
2022/02/19 12:00:50;;;;;;;3.47;1.37;;;;;;;;;;5055852;28;20216;-86
2022/02/19 12:03:18;;;;;;;7.97;1.53;;;;;;;;;;5053458;28;20273;-86
2022/02/19 12:06:04;;;;;;;4.37;1.33;;;;;;;;;;5053397;28;20203;-86
2022/02/19 12:08:52;;;;;;;8.10;1.47;;;;;;;;;;5055920;28;20679;-85
2022/02/19 12:11:20;;;;;;;6.37;1.53;;;;;;;;;;5051962;28;20279;-85
2022/02/19 12:13:49;;;;;;;5.43;1.27;;;;;;;;;;5044202;28;20282;-85
2022/02/19 12:16:39;;;;;;;6.97;1.53;;;;;;;;;;5052463;28;20290;-85
2022/02/19 12:19:07;;;;;;;5.10;1.33;;;;;;;;;;5047945;28;20629;-86
2022/02/19 12:21:35;;;;;;;7.07;1.57;;;;;;;;;;5059124;28;20246;-86
2022/02/19 12:24:11;;;;;;;6.23;1.73;;;;;;;;;;5052118;28;20199;-85
2022/02/19 12:26:57;;;;;;;5.60;1.33;;;;;;;;;;5049246;28;20637;-86
2022/02/19 12:29:26;;;;;;;8.47;1.40;;;;;;;;;;5045200;28;20200;-86
2022/02/19 12:32:04;;;;;;;7.30;1.90;;;;;;;;;;5053539;28;20235;-85
2022/02/19 12:34:32;;;;;;;8.17;1.60;;;;;;;;;;5035094;28;20197;-86
2022/02/19 12:37:02;;;;;;;7.13;1.90;;;;;;;;;;5050874;28;20241;-85
2022/02/19 12:39:29;;;;;;;6.37;1.70;;;;;;;;;;5052912;28;20203;-85
2022/02/19 12:41:57;;;;;;;6.47;1.40;;;;;;;;;;5051960;28;20316;-85
2022/02/19 12:44:28;;;;;;;5.30;1.60;;;;;;;;;;5052283;28;20238;-85
2022/02/19 12:46:56;;;;;;;5.37;1.20;;;;;;;;;;5052582;28;20202;-86
2022/02/19 12:49:24;;;;;;;3.37;1.00;;;;;;;;;;5052188;28;20199;-85
2022/02/19 12:51:55;;;;;;;6.53;1.50;;;;;;;;;;5053849;28;20204;-86
2022/02/19 12:54:39;;;;;;;6.13;1.40;;;;;;;;;;5052958;28;20231;-85
2022/02/19 12:57:06;;;;;;;4.97;1.30;;;;;;;;;;5052356;28;20219;-86
2022/02/19 12:59:36;;;;;;;6.10;1.37;;;;;;;;;;5052343;28;20688;-86
2022/02/19 13:02:04;;;;;;;5.30;1.50;;;;;;;;;;5050629;28;20278;-87
2022/02/19 13:04:32;;;;;;;3.97;1.00;;;;;;;;;;5052829;28;20700;-86
2022/02/19 13:06:59;;;;;;;5.20;1.40;;;;;;;;;;5053168;28;20279;-86
2022/02/19 13:09:27;;;;;;;4.87;0.93;;;;;;;;;;5053131;28;20204;-87
2022/02/19 13:11:55;;;;;;;5.07;1.20;;;;;;;;;;5052398;28;20275;-86
2022/02/19 13:14:25;;;;;;;4.60;1.10;;;;;;;;;;5049149;28;20648;-83
2022/02/19 13:17:00;;;;;;;5.73;1.50;;;;;;;;;;5051788;28;20196;-85
2022/02/19 13:19:28;;;;;;;4.70;1.00;;;;;;;;;;5040791;28;20223;-85
2022/02/19 13:22:02;;;;;;;7.13;1.53;;;;;;;;;;5050843;28;20266;-82
2022/02/19 13:24:30;;;;;;;4.70;1.20;;;;;;;;;;5051321;28;20266;-84
2022/02/19 13:27:10;;;;;;;10.40;1.63;;;;;;;;;;5049189;28;20261;-84
2022/02/19 13:29:37;;;;;;;5.13;1.20;;;;;;;;;;5051857;28;20213;-84
2022/02/19 13:32:06;;;;;;;4.83;1.10;;;;;;;;;;5051552;28;20727;-84
2022/02/19 13:34:36;;;;;;;6.97;1.57;;;;;;;;;;5052193;28;20246;-84
2022/02/19 13:37:03;;;;;;;3.90;1.90;;;;;;;;;;5051736;28;20196;-82
2022/02/19 13:39:40;;;;;;;4.90;1.43;;;;;;;;;;5051948;28;20227;-82
2022/02/19 13:42:08;;;;;;;7.90;1.60;;;;;;;;;;5051498;28;20211;-83
2022/02/19 13:44:45;;;;;;;6.93;1.77;;;;;;;;;;5051572;28;20222;-80
2022/02/19 13:47:14;;;;;;;4.93;1.53;;;;;;;;;;5051450;28;20288;-81
2022/02/19 13:49:45;;;;;;;7.13;1.50;;;;;;;;;;5050909;28;20614;-81
2022/02/19 13:52:23;;;;;;;6.90;1.60;;;;;;;;;;5051715;28;20220;-81
2022/02/19 13:54:50;;;;;;;8.23;1.80;;;;;;;;;;5051837;28;20233;-81
2022/02/19 13:57:18;;;;;;;4.87;1.67;;;;;;;;;;5051103;28;20726;-79
2022/02/19 13:59:59;;;;;;;4.73;1.37;;;;;;;;;;5050691;28;20215;-80
2022/02/19 14:02:28;;;;;;;4.90;1.40;;;;;;;;;;5051149;28;20220;-79
2022/02/19 14:04:59;;;;;;;6.43;1.37;;;;;;;;;;5051167;28;20282;-79
2022/02/19 14:07:26;;;;;;;5.23;1.77;;;;;;;;;;5050715;28;20675;-79
2022/02/19 14:10:04;;;;;;;7.07;1.40;;;;;;;;;;5051338;28;20199;-80
2022/02/19 14:12:35;;;;;;;5.63;1.47;;;;;;;;;;5051241;28;20218;-80
2022/02/19 14:15:03;;;;;;;6.23;1.07;;;;;;;;;;5051173;28;20622;-79
2022/02/19 14:17:39;;;;;;;4.10;1.40;;;;;;;;;;5049896;28;20207;-79
2022/02/19 14:20:09;;;;;;;7.17;1.70;;;;;;;;;;5050229;28;20667;-80
2022/02/19 14:22:43;;;;;;;7.90;2.00;;;;;;;;;;5040442;28;20216;-80
2022/02/19 14:25:18;;;;;;;6.97;1.57;;;;;;;;;;5051250;28;20208;-82
2022/02/19 14:27:49;;;;;;;6.97;1.33;;;;;;;;;;5050204;28;20670;-82
2022/02/19 14:30:16;;;;;;;6.90;1.70;;;;;;;;;;5040309;28;20196;-82
2022/02/19 14:32:44;;;;;;;5.93;1.53;;;;;;;;;;5051393;28;20287;-81
2022/02/19 14:35:12;;;;;;;9.23;1.60;;;;;;;;;;5051406;28;20675;-86
2022/02/19 14:37:39;;;;;;;5.60;1.40;;;;;;;;;;5051118;28;20245;-86
2022/02/19 14:40:08;;;;;;;7.73;1.97;;;;;;;;;;5050413;28;20234;-86
2022/02/19 14:42:35;;;;;;;8.70;1.60;;;;;;;;;;5048837;28;20224;-87
2022/02/19 14:45:03;;;;;;;5.17;1.57;;;;;;;;;;5050918;28;20277;-87
2022/02/19 14:47:30;;;;;;;9.70;1.50;;;;;;;;;;5051158;28;20245;-86
2022/02/19 14:49:59;;;;;;;5.73;1.50;;;;;;;;;;5050902;28;20220;-88
2022/02/19 14:52:26;;;;;;;8.07;1.33;;;;;;;;;;5050973;28;20196;-87